Time;durP1;ratioP1;P1;durP2;ratioP2;P2;SDS_P1;SDS_P2;PMS_P1;PMS_P2;Temp;Humidity;BMP_temperature;BMP_pressure;BME280_temperature;BME280_humidity;BME280_pressure;Samples;Min_cycle;Max_cycle;Signal;HPM_P1;HPM_P2
2023/12/29 00:00:41;;;;;;;11.70;0.55;;;10.40;99.90;;;;;;5036222;28;20083;-79
2023/12/29 00:03:07;;;;;;;9.05;0.20;;;10.40;99.90;;;;;;5036479;28;20035;-79
2023/12/29 00:05:32;;;;;;;7.10;0.30;;;10.40;99.90;;;;;;5055118;28;20021;-79
2023/12/29 00:07:58;;;;;;;5.47;0.20;;;10.40;99.90;;;;;;5036365;28;20021;-78
2023/12/29 00:10:24;;;;;;;3.17;0.00;;;10.40;99.90;;;;;;5054694;28;20434;-78
2023/12/29 00:12:49;;;;;;;4.65;0.35;;;10.30;99.90;;;;;;5055139;28;20033;-78
2023/12/29 00:15:18;;;;;;;8.63;0.55;;;10.10;99.90;;;;;;5037165;28;20017;-80
2023/12/29 00:17:46;;;;;;;10.18;0.45;;;;;;;;;;5050080;28;20488;-78
2023/12/29 00:20:13;;;;;;;7.07;0.00;;;9.90;99.90;;;;;;5055983;28;20111;-79
2023/12/29 00:22:39;;;;;;;14.00;2.10;;;9.80;99.90;;;;;;5036294;28;20516;-78
2023/12/29 00:25:05;;;;;;;4.63;0.43;;;9.70;99.90;;;;;;5053513;28;20020;-78
2023/12/29 00:27:31;;;;;;;9.93;0.55;;;9.70;99.90;;;;;;5035934;28;20438;-78
2023/12/29 00:29:56;;;;;;;4.72;0.60;;;9.80;99.90;;;;;;5035885;28;20024;-78
2023/12/29 00:32:22;;;;;;;12.77;0.50;;;9.70;99.90;;;;;;5037611;28;20025;-79
2023/12/29 00:34:48;;;;;;;7.90;0.90;;;9.70;99.90;;;;;;5039236;28;20024;-79
2023/12/29 00:37:13;;;;;;;10.45;1.02;;;9.80;99.90;;;;;;5058492;28;20021;-78
2023/12/29 00:39:39;;;;;;;6.22;0.40;;;9.80;99.90;;;;;;5058263;28;20029;-79
2023/12/29 00:42:06;;;;;;;10.40;0.10;;;10.00;99.90;;;;;;5040475;28;20023;-78
2023/12/29 00:44:32;;;;;;;4.00;0.65;;;10.00;99.90;;;;;;5059028;28;20582;-79
2023/12/29 00:46:59;;;;;;;17.50;0.80;;;10.00;99.90;;;;;;5041952;28;20017;-78
2023/12/29 00:49:24;;;;;;;5.05;0.47;;;10.10;99.90;;;;;;5060802;28;20021;-78
2023/12/29 00:51:50;;;;;;;9.95;0.20;;;10.10;99.90;;;;;;5057934;28;20032;-78
2023/12/29 00:54:16;;;;;;;23.00;2.53;;;10.20;99.90;;;;;;5039420;28;20074;-78
2023/12/29 00:56:41;;;;;;;4.07;0.30;;;10.20;99.90;;;;;;5040420;28;20083;-78
2023/12/29 00:59:07;;;;;;;8.25;0.10;;;10.20;99.90;;;;;;5041796;28;20021;-79
2023/12/29 01:01:36;;;;;;;6.90;0.30;;;10.20;99.90;;;;;;5058179;28;20059;-79
2023/12/29 01:04:02;;;;;;;6.45;0.17;;;10.30;99.90;;;;;;5040748;28;20040;-78
2023/12/29 01:06:28;;;;;;;10.30;0.40;;;10.30;99.90;;;;;;5058125;28;20485;-78
2023/12/29 01:08:53;;;;;;;11.73;0.88;;;10.30;99.90;;;;;;5057544;28;20070;-78
2023/12/29 01:11:19;;;;;;;7.30;0.40;;;10.30;99.90;;;;;;5058834;28;20104;-78
2023/12/29 01:13:45;;;;;;;8.05;0.50;;;10.40;99.90;;;;;;5058538;28;20025;-78
2023/12/29 01:16:10;;;;;;;1.98;0.03;;;10.40;99.90;;;;;;5039910;28;20036;-78
2023/12/29 01:18:36;;;;;;;3.67;0.30;;;10.40;99.90;;;;;;5058808;28;20023;-79
2023/12/29 01:21:01;;;;;;;10.68;0.35;;;10.30;99.90;;;;;;5041359;28;20492;-79
2023/12/29 01:23:27;;;;;;;4.07;0.05;;;10.30;99.90;;;;;;5041155;28;20040;-78
2023/12/29 01:25:53;;;;;;;5.22;0.43;;;10.30;99.90;;;;;;5039668;28;20480;-78
2023/12/29 01:28:18;;;;;;;11.52;0.30;;;10.30;99.90;;;;;;5057483;28;20095;-78
2023/12/29 01:30:44;;;;;;;4.05;0.10;;;10.30;99.90;;;;;;5058338;28;20075;-79
2023/12/29 01:33:09;;;;;;;12.32;0.98;;;10.30;99.90;;;;;;5057682;28;20029;-78
2023/12/29 01:35:36;;;;;;;8.52;1.08;;;10.30;99.90;;;;;;5057246;28;20025;-78
2023/12/29 01:38:02;;;;;;;8.43;0.73;;;10.20;99.90;;;;;;5057059;28;20028;-79
2023/12/29 01:40:28;;;;;;;4.78;0.20;;;10.20;99.90;;;;;;5056618;28;20025;-78
2023/12/29 01:42:54;;;;;;;5.97;0.20;;;10.20;99.90;;;;;;5058297;28;20021;-78
2023/12/29 01:45:24;;;;;;;2.60;0.30;;;10.20;99.90;;;;;;5042060;28;20029;-79
2023/12/29 01:47:50;;;;;;;5.82;0.73;;;10.20;99.90;;;;;;5061117;28;20404;-79
2023/12/29 01:50:22;;;;;;;4.50;0.47;;;10.20;99.90;;;;;;5060130;28;20025;-80
2023/12/29 01:52:49;;;;;;;5.43;0.40;;;10.20;99.90;;;;;;5057267;28;20056;-78
2023/12/29 01:55:18;;;;;;;8.85;0.47;;;10.20;99.90;;;;;;5038764;28;20028;-78
2023/12/29 01:57:44;;;;;;;;;;;10.20;99.90;;;;;;5039312;28;20054;-78
2023/12/29 02:00:12;;;;;;;8.73;0.45;;;10.20;99.90;;;;;;5057608;28;19999;-78
2023/12/29 02:02:39;;;;;;;5.10;0.55;;;10.20;99.90;;;;;;5057484;28;20064;-79
2023/12/29 02:05:05;;;;;;;7.05;0.20;;;10.20;99.90;;;;;;5040256;28;20409;-78
2023/12/29 02:07:32;;;;;;;5.35;0.75;;;10.20;99.90;;;;;;5039471;28;20025;-78
2023/12/29 02:10:02;;;;;;;3.58;0.22;;;10.20;99.90;;;;;;5058343;28;20104;-79
2023/12/29 02:12:29;;;;;;;6.55;0.20;;;10.20;99.90;;;;;;5038746;28;20022;-78
2023/12/29 02:14:54;;;;;;;8.25;0.47;;;10.20;99.90;;;;;;5053141;28;20481;-79
2023/12/29 02:17:31;;;;;;;5.18;0.10;;;10.20;99.90;;;;;;5038632;28;20227;-79
2023/12/29 02:19:57;;;;;;;6.35;0.35;;;10.20;99.90;;;;;;5038940;28;20029;-78
2023/12/29 02:22:22;;;;;;;6.10;0.30;;;10.20;99.90;;;;;;5056511;28;20495;-78
2023/12/29 02:24:51;;;;;;;8.55;0.57;;;10.10;99.90;;;;;;5033751;28;20025;-79
2023/12/29 02:27:47;;;;;;;8.45;0.40;;;10.10;99.90;;;;;;5038027;28;20120;-78
2023/12/29 02:30:18;;;;;;;2.03;0.45;;;10.10;99.90;;;;;;5038065;28;20067;-78
2023/12/29 02:32:46;;;;;;;7.95;0.30;;;10.10;99.90;;;;;;5056274;28;20056;-79
2023/12/29 02:35:24;;;;;;;7.57;0.10;;;10.00;99.90;;;;;;5037615;28;20036;-79
2023/12/29 02:37:50;;;;;;;10.73;0.43;;;10.00;99.90;;;;;;5038490;28;20276;-78
2023/12/29 02:40:17;;;;;;;4.38;0.38;;;10.00;99.90;;;;;;5057355;28;20060;-79
2023/12/29 02:42:49;;;;;;;3.72;0.20;;;10.00;99.90;;;;;;5038075;28;20056;-79
2023/12/29 02:45:16;;;;;;;6.25;0.25;;;9.90;99.90;;;;;;5037611;28;20032;-79
2023/12/29 02:47:42;;;;;;;4.93;0.10;;;9.90;99.90;;;;;;5056399;28;20029;-78
2023/12/29 02:50:09;;;;;;;4.88;0.40;;;9.90;99.90;;;;;;5055019;28;20020;-78
2023/12/29 02:52:34;;;;;;;7.97;0.55;;;9.80;99.90;;;;;;5055161;28;20036;-79
2023/12/29 02:55:00;;;;;;;2.33;0.10;;;9.80;99.90;;;;;;5058452;28;20021;-79
2023/12/29 02:57:26;;;;;;;6.47;0.20;;;9.80;99.90;;;;;;5040199;28;20027;-79
2023/12/29 02:59:52;;;;;;;12.25;1.20;;;9.90;99.90;;;;;;5039191;28;20112;-79
2023/12/29 03:02:17;;;;;;;9.18;0.15;;;9.80;99.90;;;;;;5057375;28;20036;-80
2023/12/29 03:04:43;;;;;;;5.18;1.25;;;9.70;99.90;;;;;;5057597;28;20037;-79
2023/12/29 03:07:09;;;;;;;9.65;1.20;;;9.70;99.90;;;;;;5040307;28;20079;-79
2023/12/29 03:09:35;;;;;;;5.25;0.22;;;9.80;99.90;;;;;;5039662;28;20025;-80
2023/12/29 03:12:01;;;;;;;9.98;0.95;;;9.80;99.90;;;;;;5039731;28;20119;-79
2023/12/29 03:14:27;;;;;;;9.00;0.10;;;9.80;99.90;;;;;;5044819;28;20056;-78
2023/12/29 03:16:52;;;;;;;8.82;0.60;;;9.80;99.90;;;;;;5039631;28;20167;-80
2023/12/29 03:19:18;;;;;;;10.65;0.90;;;9.80;99.90;;;;;;5056450;28;20028;-79
2023/12/29 03:21:43;;;;;;;5.25;0.00;;;9.80;99.90;;;;;;5057280;28;20033;-80
2023/12/29 03:24:09;;;;;;;11.15;0.47;;;9.80;99.90;;;;;;5057537;28;20032;-80
2023/12/29 03:26:35;;;;;;;9.02;1.77;;;9.80;99.90;;;;;;5053899;28;20032;-78
2023/12/29 03:29:00;;;;;;;10.10;0.40;;;9.70;99.90;;;;;;5032481;28;20550;-79
2023/12/29 03:31:26;;;;;;;5.45;0.60;;;9.70;99.90;;;;;;5055879;28;20029;-78
2023/12/29 03:33:52;;;;;;;8.48;0.85;;;9.60;99.90;;;;;;5039058;28;20017;-79
2023/12/29 03:36:18;;;;;;;12.15;1.15;;;9.60;99.90;;;;;;5056953;28;20025;-80
2023/12/29 03:38:43;;;;;;;7.35;0.65;;;9.50;99.90;;;;;;5039222;28;20029;-80
2023/12/29 03:41:09;;;;;;;7.68;0.43;;;9.50;99.90;;;;;;5039513;28;20025;-79
2023/12/29 03:43:35;;;;;;;14.43;1.38;;;9.50;99.90;;;;;;5056814;28;20039;-79
2023/12/29 03:46:00;;;;;;;12.15;1.10;;;9.50;99.90;;;;;;5039289;28;20063;-80
2023/12/29 03:48:26;;;;;;;11.52;0.70;;;9.50;99.90;;;;;;5038207;28;20027;-80
2023/12/29 03:50:52;;;;;;;3.88;0.00;;;9.80;99.90;;;;;;5057166;28;20111;-79
2023/12/29 03:53:19;;;;;;;18.17;1.80;;;9.50;99.90;;;;;;5040630;28;20025;-80
2023/12/29 03:55:44;;;;;;;9.90;0.93;;;9.40;99.90;;;;;;5058064;28;20025;-80
2023/12/29 03:58:10;;;;;;;16.13;0.63;;;9.50;99.90;;;;;;5058261;28;20074;-79
2023/12/29 04:00:37;;;;;;;8.35;0.63;;;9.50;99.90;;;;;;5057521;28;20032;-78
2023/12/29 04:03:03;;;;;;;8.00;0.75;;;9.50;99.90;;;;;;5058016;28;20036;-80
2023/12/29 04:05:29;;;;;;;9.43;1.38;;;9.50;99.90;;;;;;5058872;28;20029;-79
2023/12/29 04:07:55;;;;;;;4.93;0.88;;;;;;;;;;5058696;28;20027;-79
2023/12/29 04:10:20;;;;;;;6.22;0.88;;;9.60;99.90;;;;;;5041218;28;20486;-80
2023/12/29 04:12:46;;;;;;;8.13;0.50;;;9.70;99.90;;;;;;5061177;28;20107;-81
2023/12/29 04:15:12;;;;;;;10.15;1.40;;;9.60;99.90;;;;;;5059111;28;20021;-78
2023/12/29 04:17:37;;;;;;;9.40;0.40;;;9.70;99.90;;;;;;5040359;28;20017;-79
2023/12/29 04:20:04;;;;;;;10.00;0.73;;;9.70;99.90;;;;;;5039729;28;20025;-79
2023/12/29 04:22:29;;;;;;;5.63;0.28;;;9.70;99.90;;;;;;5040137;28;20021;-78
2023/12/29 04:24:55;;;;;;;9.02;0.45;;;9.70;99.90;;;;;;5039857;28;20032;-78
2023/12/29 04:27:22;;;;;;;10.52;0.70;;;9.70;99.90;;;;;;5039834;28;20074;-78
2023/12/29 04:29:48;;;;;;;3.88;0.17;;;9.70;99.90;;;;;;5057522;28;20025;-78
2023/12/29 04:32:14;;;;;;;8.25;0.80;;;9.70;99.90;;;;;;5039317;28;20025;-78
2023/12/29 04:34:40;;;;;;;11.32;1.35;;;9.80;99.90;;;;;;5057393;28;20024;-77
2023/12/29 04:37:06;;;;;;;12.57;0.90;;;9.80;99.90;;;;;;5057557;28;20083;-78
2023/12/29 04:39:32;;;;;;;6.93;0.52;;;9.80;99.90;;;;;;5039115;28;20025;-77
2023/12/29 04:41:58;;;;;;;7.40;0.73;;;9.80;99.90;;;;;;5056866;28;20021;-77
2023/12/29 04:44:24;;;;;;;16.40;1.58;;;9.90;99.90;;;;;;5056609;28;20029;-78
2023/12/29 04:46:50;;;;;;;21.48;1.50;;;9.90;99.90;;;;;;5038953;28;20013;-78
2023/12/29 04:49:15;;;;;;;9.75;1.15;;;9.90;99.90;;;;;;5039008;28;20017;-78
2023/12/29 04:51:41;;;;;;;8.93;0.40;;;9.90;99.90;;;;;;5038773;28;20514;-78
2023/12/29 04:54:06;;;;;;;11.55;0.75;;;9.90;99.90;;;;;;5039051;28;20534;-78
2023/12/29 04:56:33;;;;;;;23.85;1.80;;;9.90;99.90;;;;;;5056742;28;20052;-78
2023/12/29 04:59:00;;;;;;;10.35;1.02;;;9.90;99.90;;;;;;5056610;28;20488;-77
2023/12/29 05:01:25;;;;;;;14.25;0.47;;;9.90;99.90;;;;;;5056572;28;20107;-77
2023/12/29 05:03:51;;;;;;;16.15;0.43;;;10.00;99.90;;;;;;5039161;28;20123;-78
2023/12/29 05:06:17;;;;;;;14.40;0.40;;;10.00;99.90;;;;;;5056917;28;20021;-78
2023/12/29 05:08:43;;;;;;;12.85;0.20;;;9.90;99.90;;;;;;5038701;28;20044;-78
2023/12/29 05:11:09;;;;;;;15.65;0.47;;;9.90;99.90;;;;;;5038625;28;20017;-77
2023/12/29 05:13:36;;;;;;;13.70;2.97;;;9.90;99.90;;;;;;5038634;28;20029;-77
2023/12/29 05:16:03;;;;;;;10.68;0.40;;;9.90;99.90;;;;;;5038742;28;20040;-77
2023/12/29 05:18:29;;;;;;;9.55;0.60;;;9.90;99.90;;;;;;5056318;28;20110;-77
2023/12/29 05:20:55;;;;;;;14.45;1.30;;;9.90;99.90;;;;;;5056263;28;20025;-77
2023/12/29 05:23:21;;;;;;;11.32;0.30;;;9.90;99.90;;;;;;5056920;28;20029;-77
2023/12/29 05:25:47;;;;;;;11.25;1.33;;;9.90;99.90;;;;;;5038418;28;20021;-77
2023/12/29 05:28:12;;;;;;;20.42;1.38;;;9.90;99.90;;;;;;5056351;28;20024;-78
2023/12/29 05:30:38;;;;;;;13.75;1.13;;;9.90;99.90;;;;;;5056824;28;20060;-78
2023/12/29 05:33:04;;;;;;;15.48;0.52;;;9.90;99.90;;;;;;5059068;28;20029;-78
2023/12/29 05:35:33;;;;;;;12.82;1.58;;;9.90;99.90;;;;;;5040210;28;20021;-77
2023/12/29 05:37:59;;;;;;;10.05;1.17;;;9.90;99.90;;;;;;5038469;28;20395;-78
2023/12/29 05:40:25;;;;;;;16.60;0.82;;;9.90;99.90;;;;;;5057837;28;20033;-77
2023/12/29 05:42:51;;;;;;;13.82;0.98;;;9.90;99.90;;;;;;5057612;28;20041;-77
2023/12/29 05:45:17;;;;;;;10.77;0.45;;;9.90;99.90;;;;;;5042257;28;20088;-78
2023/12/29 05:47:44;;;;;;;22.23;1.33;;;9.90;99.90;;;;;;5056986;28;20084;-77
2023/12/29 05:50:14;;;;;;;16.50;0.50;;;9.80;99.90;;;;;;5056660;28;20091;-77
2023/12/29 05:52:43;;;;;;;6.72;0.32;;;9.80;99.90;;;;;;5038533;28;20206;-78
2023/12/29 05:55:11;;;;;;;16.40;0.90;;;9.80;99.90;;;;;;5038959;28;20027;-78
2023/12/29 05:57:37;;;;;;;7.63;0.38;;;9.70;99.90;;;;;;5038136;28;20396;-77
2023/12/29 06:00:04;;;;;;;15.38;1.27;;;9.80;99.90;;;;;;5038132;28;20021;-78
2023/12/29 06:02:30;;;;;;;15.40;0.95;;;9.80;99.90;;;;;;5056586;28;20371;-78
2023/12/29 06:04:56;;;;;;;11.27;1.60;;;9.80;99.90;;;;;;5056332;28;20476;-78
2023/12/29 06:07:21;;;;;;;13.45;1.33;;;9.80;99.90;;;;;;5037566;28;20115;-78
2023/12/29 06:09:47;;;;;;;10.00;0.50;;;9.90;99.90;;;;;;5055976;28;20022;-78
2023/12/29 06:12:13;;;;;;;8.48;0.75;;;10.00;99.90;;;;;;5038763;28;20033;-78
2023/12/29 06:14:38;;;;;;;10.00;0.73;;;9.90;99.90;;;;;;5055743;28;20039;-78
2023/12/29 06:17:06;;;;;;;6.80;0.60;;;9.90;99.90;;;;;;5037570;28;20032;-78
2023/12/29 06:19:34;;;;;;;17.52;0.55;;;10.00;99.90;;;;;;5037584;28;20039;-78
2023/12/29 06:21:59;;;;;;;21.90;0.68;;;10.00;99.90;;;;;;5056539;28;20028;-77
2023/12/29 06:24:26;;;;;;;8.70;0.77;;;10.00;99.90;;;;;;5037728;28;20025;-78
2023/12/29 06:26:52;;;;;;;13.30;1.40;;;9.90;99.90;;;;;;5037435;28;20025;-78
2023/12/29 06:29:17;;;;;;;6.30;0.25;;;9.90;99.90;;;;;;5055340;28;20025;-78
2023/12/29 06:31:43;;;;;;;15.07;1.08;;;9.90;99.90;;;;;;5056959;28;20036;-77
2023/12/29 06:34:09;;;;;;;14.38;1.48;;;9.90;99.90;;;;;;5038629;28;20028;-78
2023/12/29 06:36:34;;;;;;;9.18;0.45;;;9.90;99.90;;;;;;5039288;28;20415;-77
2023/12/29 06:39:00;;;;;;;11.95;0.98;;;9.90;99.90;;;;;;5057442;28;20025;-77
2023/12/29 06:41:26;;;;;;;8.80;0.77;;;10.00;99.90;;;;;;5059203;28;20033;-78
2023/12/29 06:43:51;;;;;;;14.65;1.10;;;10.00;99.90;;;;;;5060038;28;20518;-77
2023/12/29 06:46:17;;;;;;;10.45;0.63;;;10.00;99.90;;;;;;5041994;28;20032;-78
2023/12/29 06:48:43;;;;;;;13.98;0.80;;;10.00;99.90;;;;;;5037158;28;20021;-78
2023/12/29 06:51:10;;;;;;;14.30;1.25;;;10.00;99.90;;;;;;5040504;28;20488;-78
2023/12/29 06:53:36;;;;;;;10.25;0.88;;;10.00;99.90;;;;;;5036744;28;20017;-79
2023/12/29 06:56:01;;;;;;;12.02;0.73;;;10.00;99.90;;;;;;5036516;28;20164;-78
2023/12/29 06:58:27;;;;;;;14.52;0.35;;;10.00;99.90;;;;;;5038457;28;20060;-79
2023/12/29 07:00:53;;;;;;;10.23;0.73;;;10.00;99.90;;;;;;5057622;28;20012;-78
2023/12/29 07:03:19;;;;;;;11.25;1.45;;;10.00;99.90;;;;;;5038516;28;20028;-78
2023/12/29 07:05:45;;;;;;;8.00;0.98;;;10.00;99.90;;;;;;5041241;28;20028;-77
2023/12/29 07:08:13;;;;;;;6.50;0.20;;;10.00;99.90;;;;;;5054716;28;20455;-77
2023/12/29 07:10:39;;;;;;;8.88;0.22;;;10.00;99.90;;;;;;5055804;28;20017;-76
2023/12/29 07:13:04;;;;;;;5.97;0.40;;;10.00;99.90;;;;;;5054748;28;20525;-76
2023/12/29 07:15:30;;;;;;;4.93;0.40;;;10.00;99.90;;;;;;5054550;28;20115;-77
2023/12/29 07:17:56;;;;;;;9.85;0.63;;;10.00;99.90;;;;;;5036689;28;20028;-76
2023/12/29 07:20:21;;;;;;;2.05;0.10;;;10.00;99.90;;;;;;5037174;28;20028;-78
2023/12/29 07:22:47;;;;;;;4.00;0.05;;;10.00;99.90;;;;;;5037424;28;20025;-79
2023/12/29 07:25:14;;;;;;;6.25;0.95;;;10.00;99.90;;;;;;5037087;28;20017;-78
2023/12/29 07:27:39;;;;;;;4.53;0.93;;;9.90;99.90;;;;;;5054355;28;20025;-78
2023/12/29 07:30:05;;;;;;;4.43;0.30;;;10.00;99.90;;;;;;5056336;28;20047;-78
2023/12/29 07:32:31;;;;;;;3.58;0.10;;;10.00;99.90;;;;;;5036304;28;20399;-79
2023/12/29 07:34:57;;;;;;;3.70;0.10;;;9.90;99.90;;;;;;5053875;28;20033;-78
2023/12/29 07:37:23;;;;;;;2.92;0.25;;;10.00;99.90;;;;;;5054674;28;20047;-79
2023/12/29 07:39:49;;;;;;;3.90;0.20;;;9.90;99.90;;;;;;5055431;28;20036;-78
2023/12/29 07:42:17;;;;;;;1.52;0.10;;;9.80;99.90;;;;;;5038651;28;20130;-78
2023/12/29 07:44:43;;;;;;;5.33;0.90;;;9.80;99.90;;;;;;5037386;28;20082;-79
2023/12/29 07:47:10;;;;;;;3.22;0.10;;;9.80;99.90;;;;;;5038119;28;20027;-79
2023/12/29 07:49:36;;;;;;;4.78;0.13;;;9.80;99.90;;;;;;5061011;28;20040;-79
2023/12/29 07:52:03;;;;;;;6.10;0.52;;;9.80;99.90;;;;;;5046690;28;20057;-79
2023/12/29 07:54:28;;;;;;;7.07;0.40;;;9.80;99.90;;;;;;5058384;28;20025;-78
2023/12/29 07:56:54;;;;;;;8.25;0.30;;;9.80;99.90;;;;;;5065178;28;20021;-79
2023/12/29 07:59:20;;;;;;;10.55;0.32;;;9.80;99.90;;;;;;5063485;28;20048;-79
2023/12/29 08:01:45;;;;;;;6.32;0.40;;;9.80;99.90;;;;;;5063658;28;20028;-79
2023/12/29 08:04:11;;;;;;;8.05;0.88;;;9.80;99.90;;;;;;5048364;28;20024;-79
2023/12/29 08:06:40;;;;;;;5.00;0.65;;;9.80;99.90;;;;;;5043546;28;20022;-78
2023/12/29 08:09:07;;;;;;;6.35;0.93;;;9.80;99.90;;;;;;5050985;28;20435;-78
2023/12/29 08:11:33;;;;;;;5.32;0.55;;;9.80;99.90;;;;;;5047542;28;20021;-78
2023/12/29 08:13:58;;;;;;;9.00;0.55;;;9.80;99.90;;;;;;5053436;28;20079;-77
2023/12/29 08:16:24;;;;;;;5.13;0.28;;;9.90;99.90;;;;;;5061004;28;20024;-78
2023/12/29 08:18:50;;;;;;;2.40;0.20;;;9.90;99.90;;;;;;5046999;28;20124;-79
2023/12/29 08:21:19;;;;;;;2.80;0.38;;;9.90;99.90;;;;;;5054195;28;20025;-78
2023/12/29 08:23:48;;;;;;;3.10;0.38;;;9.90;99.90;;;;;;5053620;28;20025;-78
2023/12/29 08:26:15;;;;;;;4.82;1.15;;;9.90;99.90;;;;;;5037453;28;20055;-78
2023/12/29 08:28:40;;;;;;;1.67;0.20;;;9.90;99.90;;;;;;5056528;28;20029;-78
2023/12/29 08:31:08;;;;;;;4.30;0.55;;;9.90;99.90;;;;;;5057197;28;20476;-79
2023/12/29 08:33:33;;;;;;;3.25;0.40;;;9.90;99.90;;;;;;5041648;28;20017;-79
2023/12/29 08:36:01;;;;;;;5.63;0.38;;;10.00;99.90;;;;;;5044993;28;20442;-79
2023/12/29 08:38:27;;;;;;;4.93;0.05;;;10.00;99.90;;;;;;5047436;28;20021;-79
2023/12/29 08:40:53;;;;;;;3.70;0.20;;;;;;;;;;5058864;28;20036;-79
2023/12/29 08:43:21;;;;;;;15.70;0.85;;;10.10;99.90;;;;;;5040244;28;20033;-79
2023/12/29 08:45:48;;;;;;;3.45;0.00;;;10.10;99.90;;;;;;5043834;28;20452;-79
2023/12/29 08:48:13;;;;;;;2.63;0.13;;;10.20;99.90;;;;;;5044239;28;20021;-78
2023/12/29 08:50:39;;;;;;;2.95;0.38;;;10.40;99.90;;;;;;5056723;28;20028;-78
2023/12/29 08:53:04;;;;;;;2.47;0.13;;;10.10;99.90;;;;;;5057188;28;20461;-78
2023/12/29 08:55:34;;;;;;;2.30;0.60;;;10.00;99.90;;;;;;5038263;28;20036;-78
2023/12/29 08:58:01;;;;;;;2.65;0.10;;;;;;;;;;5042589;28;20033;-79
2023/12/29 09:00:30;;;;;;;6.78;1.05;;;10.00;99.90;;;;;;5044329;28;20082;-78
2023/12/29 09:02:56;;;;;;;4.38;0.20;;;10.00;99.90;;;;;;5043144;28;20121;-78
2023/12/29 09:05:22;;;;;;;7.57;0.25;;;9.90;99.90;;;;;;5044472;28;20029;-78
2023/12/29 09:07:47;;;;;;;3.90;0.05;;;11.00;99.90;;;;;;5064983;28;20039;-79
2023/12/29 09:10:14;;;;;;;2.55;0.13;;;10.00;99.90;;;;;;5064582;28;20029;-79
2023/12/29 09:12:40;;;;;;;3.92;0.63;;;10.00;99.90;;;;;;5046596;28;20029;-79
2023/12/29 09:15:07;;;;;;;4.95;0.20;;;10.00;99.90;;;;;;5063949;28;20031;-79
2023/12/29 09:17:32;;;;;;;3.50;0.38;;;10.10;99.90;;;;;;5060008;28;20047;-78
2023/12/29 09:19:58;;;;;;;2.08;0.05;;;10.10;99.90;;;;;;5057238;28;20025;-78
2023/12/29 09:22:24;;;;;;;4.80;0.20;;;10.10;99.90;;;;;;5038571;28;20439;-78
2023/12/29 09:24:49;;;;;;;4.95;0.65;;;10.10;99.90;;;;;;5038721;28;20029;-78
2023/12/29 09:27:15;;;;;;;3.45;0.00;;;10.20;99.90;;;;;;5040091;28;20462;-79
2023/12/29 09:29:41;;;;;;;6.00;0.35;;;10.20;99.90;;;;;;5039848;28;20481;-78
2023/12/29 09:32:07;;;;;;;6.20;0.10;;;10.20;99.90;;;;;;5041364;28;20396;-78
2023/12/29 09:34:33;;;;;;;1.05;0.05;;;10.30;99.90;;;;;;5039641;28;20021;-78
2023/12/29 09:36:59;;;;;;;5.03;0.95;;;10.30;99.90;;;;;;5043062;28;20017;-79
2023/12/29 09:39:24;;;;;;;3.13;0.13;;;10.40;99.90;;;;;;5061535;28;20021;-79
2023/12/29 09:41:52;;;;;;;3.17;0.35;;;10.30;99.90;;;;;;5060479;28;20029;-78
2023/12/29 09:44:21;;;;;;;4.43;0.30;;;10.40;99.90;;;;;;5059685;28;20032;-79
2023/12/29 09:46:53;;;;;;;6.53;0.40;;;10.50;99.90;;;;;;5059425;28;20013;-78
2023/12/29 09:49:19;;;;;;;4.78;0.32;;;10.50;99.90;;;;;;5043565;28;20048;-79
2023/12/29 09:51:46;;;;;;;6.47;0.32;;;10.40;99.90;;;;;;5040559;28;20025;-78
2023/12/29 09:54:13;;;;;;;5.50;0.77;;;10.50;99.90;;;;;;5056474;28;20060;-78
2023/12/29 09:56:39;;;;;;;4.90;0.00;;;10.50;99.90;;;;;;5038240;28;20119;-78
2023/12/29 09:59:08;;;;;;;2.30;0.00;;;10.60;99.90;;;;;;5038456;28;20037;-78
2023/12/29 10:01:35;;;;;;;;;;;10.60;99.90;;;;;;5056542;28;20104;-78
2023/12/29 10:04:01;;;;;;;2.67;0.10;;;10.60;99.90;;;;;;5038313;28;19927;-79
2023/12/29 10:06:31;;;;;;;2.67;0.55;;;10.60;99.90;;;;;;5056314;28;20396;-78
2023/12/29 10:08:57;;;;;;;2.10;0.00;;;10.60;99.90;;;;;;5037429;28;20578;-78
2023/12/29 10:11:24;;;;;;;3.75;0.10;;;10.60;99.90;;;;;;5056137;28;20025;-78
2023/12/29 10:13:55;;;;;;;3.63;0.20;;;10.70;99.90;;;;;;5059282;28;20045;-81
2023/12/29 10:16:41;;;;;;;3.03;0.45;;;10.80;99.90;;;;;;5065079;28;20027;-79
2023/12/29 10:19:15;;;;;;;5.60;0.30;;;10.80;99.90;;;;;;5051025;28;20032;-79
2023/12/29 10:21:49;;;;;;;6.50;0.17;;;10.80;99.90;;;;;;5068801;28;20025;-79
2023/12/29 10:24:19;;;;;;;3.80;0.43;;;10.80;99.90;;;;;;5049214;28;20024;-79
2023/12/29 10:26:45;;;;;;;1.80;0.10;;;;;;;;;;5069175;28;20024;-78
2023/12/29 10:29:14;;;;;;;8.85;0.30;;;10.80;99.90;;;;;;5061194;28;20053;-79
2023/12/29 10:31:39;;;;;;;;;;;10.90;99.90;;;;;;5040781;28;20040;-79
2023/12/29 10:34:19;;;;;;;0.80;0.17;;;;;;;;;;5040088;28;19905;-80
2023/12/29 10:36:49;;;;;;;5.40;0.10;;;10.90;99.90;;;;;;5040012;28;20069;-80
2023/12/29 10:39:15;;;;;;;3.17;0.68;;;10.90;99.90;;;;;;5057741;28;20032;-81
2023/12/29 10:41:41;;;;;;;2.17;0.10;;;11.00;99.90;;;;;;5039548;28;20098;-82
2023/12/29 10:44:07;;;;;;;7.68;1.92;;;11.00;99.90;;;;;;5056995;28;20029;-82
2023/12/29 10:46:33;;;;;;;8.40;0.75;;;11.00;99.90;;;;;;5039912;28;20040;-81
2023/12/29 10:49:13;;;;;;;7.68;0.57;;;10.90;99.90;;;;;;5057492;28;20021;-80
2023/12/29 10:51:39;;;;;;;4.57;0.30;;;10.90;99.90;;;;;;5039989;28;20075;-81
2023/12/29 10:54:06;;;;;;;4.28;0.00;;;10.90;99.90;;;;;;5039172;28;20113;-79
2023/12/29 10:56:34;;;;;;;4.47;0.10;;;10.90;99.90;;;;;;5041580;28;20037;-79
2023/12/29 10:59:05;;;;;;;5.50;0.30;;;10.90;99.90;;;;;;5058203;28;20035;-81
2023/12/29 11:01:35;;;;;;;12.35;0.40;;;10.90;99.90;;;;;;5057811;28;20021;-81
2023/12/29 11:04:06;;;;;;;7.75;0.32;;;10.90;99.90;;;;;;5039911;28;20143;-81
2023/12/29 11:06:44;;;;;;;6.20;0.03;;;10.90;99.90;;;;;;5040245;28;20506;-80
2023/12/29 11:09:11;;;;;;;7.57;0.10;;;11.00;99.90;;;;;;5040275;28;20017;-80
2023/12/29 11:11:39;;;;;;;5.82;0.03;;;11.00;99.90;;;;;;5056440;28;20125;-79
2023/12/29 11:14:12;;;;;;;4.75;0.00;;;11.10;99.90;;;;;;5058865;28;20384;-80
2023/12/29 11:16:41;;;;;;;10.30;0.28;;;11.10;99.90;;;;;;5038074;28;20039;-79
2023/12/29 11:19:10;;;;;;;3.90;0.17;;;11.10;99.90;;;;;;5036535;28;20370;-79
2023/12/29 11:21:38;;;;;;;6.03;0.52;;;11.10;99.90;;;;;;5036731;28;20041;-79
2023/12/29 11:24:04;;;;;;;4.18;0.40;;;11.10;99.90;;;;;;5037294;28;20111;-80
2023/12/29 11:26:30;;;;;;;11.20;1.35;;;11.10;99.90;;;;;;5057126;28;20052;-80
2023/12/29 11:28:56;;;;;;;1.67;0.08;;;11.10;99.90;;;;;;5040273;28;20021;-79
2023/12/29 11:31:22;;;;;;;11.60;0.80;;;11.20;99.90;;;;;;5039269;28;20045;-80
2023/12/29 11:33:57;;;;;;;4.88;0.20;;;11.20;99.90;;;;;;5057836;28;20380;-80
2023/12/29 11:36:31;;;;;;;8.57;0.57;;;11.30;99.90;;;;;;5056187;28;20021;-80
2023/12/29 11:38:57;;;;;;;10.63;0.45;;;11.30;99.90;;;;;;5039931;28;20123;-80
2023/12/29 11:41:42;;;;;;;2.85;0.40;;;11.40;99.90;;;;;;5040523;28;20468;-80
2023/12/29 11:44:08;;;;;;;10.05;0.90;;;11.40;99.90;;;;;;5041162;28;20137;-80
2023/12/29 11:46:38;;;;;;;11.23;0.82;;;11.40;99.90;;;;;;5039777;28;20483;-80
2023/12/29 11:49:04;;;;;;;9.52;0.68;;;11.30;99.90;;;;;;5040000;28;20082;-80
2023/12/29 11:51:31;;;;;;;6.28;0.22;;;11.30;99.90;;;;;;5039920;28;20025;-81
2023/12/29 11:53:57;;;;;;;13.20;0.85;;;11.30;99.90;;;;;;5039800;28;20021;-80
2023/12/29 11:56:23;;;;;;;7.78;0.00;;;;;;;;;;5039615;28;20049;-80
2023/12/29 11:58:49;;;;;;;10.55;0.63;;;11.40;99.90;;;;;;5039792;28;20048;-80
2023/12/29 12:01:34;;;;;;;7.65;0.80;;;11.40;99.90;;;;;;5058435;28;20045;-80
2023/12/29 12:04:02;;;;;;;3.47;0.28;;;11.50;99.90;;;;;;5039876;28;20119;-80
2023/12/29 12:06:40;;;;;;;8.05;0.55;;;11.50;99.90;;;;;;5039329;28;20017;-80
2023/12/29 12:09:18;;;;;;;8.27;0.22;;;11.40;99.90;;;;;;5040333;28;20028;-80
2023/12/29 12:11:44;;;;;;;6.60;0.17;;;11.50;99.90;;;;;;5058050;28;20021;-80
2023/12/29 12:14:10;;;;;;;13.90;1.10;;;12.40;99.90;;;;;;5038055;28;20025;-80
2023/12/29 12:16:47;;;;;;;13.80;0.68;;;11.40;99.90;;;;;;5055937;28;20096;-82
2023/12/29 12:19:14;;;;;;;10.25;0.43;;;11.40;99.90;;;;;;5046947;28;21385;-82
2023/12/29 12:21:40;;;;;;;7.28;0.28;;;11.40;99.90;;;;;;5054634;28;20084;-77
2023/12/29 12:24:07;;;;;;;6.40;0.73;;;11.40;99.90;;;;;;5034218;28;20021;-79
2023/12/29 12:26:33;;;;;;;10.32;1.13;;;11.40;99.90;;;;;;5037442;28;20025;-80
2023/12/29 12:28:59;;;;;;;17.10;1.25;;;;;;;;;;5022047;28;20048;-79
2023/12/29 12:31:29;;;;;;;6.07;0.35;;;11.40;99.90;;;;;;5055141;28;20031;-78
2023/12/29 12:33:56;;;;;;;9.40;0.38;;;11.50;99.90;;;;;;5058049;28;20017;-79
2023/12/29 12:36:22;;;;;;;7.85;0.77;;;11.40;99.90;;;;;;5040135;28;20021;-79
2023/12/29 12:38:55;;;;;;;7.38;0.17;;;11.50;99.90;;;;;;5057631;28;20025;-79
2023/12/29 12:41:25;;;;;;;7.65;0.20;;;11.50;99.90;;;;;;5058475;28;20045;-79
2023/12/29 12:43:54;;;;;;;5.82;0.25;;;11.50;99.90;;;;;;5057629;28;20549;-79
2023/12/29 12:46:21;;;;;;;;;;;11.50;99.90;;;;;;5040424;28;20091;-79
2023/12/29 12:48:47;;;;;;;13.73;0.47;;;11.50;99.90;;;;;;5057874;28;19926;-79